Terminal Aerodrome Forecast
Issued by NWS Sioux Falls, SD

Home | Current Version | Previous Version | Text Only | Print | Product List | Glossary On
Versions: 1 2 3 4 5 6 7 8 9 10 11 12 13 14 15 16 17 18 19 20 21 22 23 24 25
514
FTUS43 KFSD 211352 AAA
TAFSUX
TAF AMD
KSUX 211352Z 2114/2212 03011KT 1/2SM SN OVC015
     FM211430 03010KT 5SM -SN OVC025
     FM211530 03010KT P6SM SCT025 BKN035
     FM211700 02010KT P6SM OVC060
     FM220200 05006KT P6SM BKN100=

USA.gov is the U.S. government's official web portal to all federal, state and local government web resources and services.